Impacts METAR Board
IDs:

PABE - Bethel Arpt, AK, US

Updated at: 2200 UTC 21 May 2022
Potential Impact None Slight Moderate High
Time 21/10Z 21/11Z 21/12Z 21/13Z 21/14Z 21/15Z 21/16Z 21/17Z 21/18Z 21/19Z 21/20Z 21/21Z 21/22Z
Temp49 50 49 48 48 48 49 50 52 55 57 60 63
Dewpt31 33 33 34 35 35 36 36 36 32 31 26 25
Altim30.04 30.04 30.04 30.03 30.02 30.01 30.01 30.00 30.00 30.00 29.99 29.96 29.95
VIS10 10 10 10 10 10 10 10 10 10 10 10 10
CIG120 -- 90 90 70 50 55 75 70 90 110 -- --
CoverBKNCLROVCOVCOVCOVCOVCOVCOVCOVCOVCCLRCLR
FltCatVFRVFRVFRVFRVFRVFRVFRVFRVFRVFRVFRVFRVFR
WX--------------------------
WDir120110100909090806060805070100
WSpd12 15 8 8 9 10 8 7 10 11 9 17 21
WGst-- 21 -- -- -- -- -- -- -- -- -- 24 25
Raw hourly METARs
PABE 210953Z 12012KT 10SM BKN120 09/M01 A3004 RMK AO2 SLP174 T00941006
PABE 211053Z 11015G21KT 10SM CLR 10/01 A3004 RMK AO2 SLP172 T01000006
PABE 211153Z 10008KT 10SM OVC090 09/01 A3004 RMK AO2 SLP172 T00940006 10139 20094 56007
PABE 211253Z 09008KT 10SM OVC090 09/01 A3003 RMK AO2 SLP169 T00890011
PABE 211353Z 09009KT 10SM OVC070 09/02 A3002 RMK AO2 SLP167 T00890017
PABE 211453Z 09010KT 10SM OVC050 09/02 A3001 RMK AO2 SLP164 T00890017 58008
PABE 211553Z 08008KT 10SM OVC055 09/02 A3001 RMK AO2 SLP162 T00940022
PABE 211653Z 06007KT 10SM OVC075 10/02 A3000 RMK AO2 SLP160 T01000022
PABE 211753Z 06010KT 10SM BKN070 OVC080 11/02 A3000 RMK AO2 SLP160 T01110022 10111 20089 56005
PABE 211853Z 08011KT 10SM FEW075 OVC090 13/00 A3000 RMK AO2 SLP158 T01280000
PABE 211953Z 05009KT 10SM OVC110 14/M01 A2999 RMK AO2 SLP156 T01391006
PABE 212053Z 07017G24KT 10SM CLR 16/M03 A2996 RMK AO2 SLP148 T01561033 58012
PABE 212153Z 10021G25KT 10SM CLR 17/M04 A2995 RMK AO2 PK WND 11028/2142 SLP142 T01721039



Page loaded:  22:07 UTC  |   03:07 PM Pacific  |   04:07 PM Mountain  |   05:07 PM Central  |   06:07 PM Eastern

 

ADVISORIES

FORECASTS

FORECASTS

OBSERVATIONS

USER TOOLS

ABOUT US